createdAt,value
2019-03-22T00:01:39.508Z,11.40
2019-03-22T00:04:10.954Z,11.78
2019-03-22T00:06:42.516Z,10.80
2019-03-22T00:09:13.911Z,11.75
2019-03-22T00:11:45.293Z,11.90
2019-03-22T00:14:16.669Z,11.90
2019-03-22T00:16:48.129Z,11.47
2019-03-22T00:19:19.511Z,10.63
2019-03-22T00:21:50.890Z,12.17
2019-03-22T00:24:22.267Z,11.67
2019-03-22T00:26:53.633Z,11.33
2019-03-22T00:29:25.026Z,11.40
2019-03-22T00:31:56.429Z,11.40
2019-03-22T00:34:27.886Z,11.23
2019-03-22T00:36:59.223Z,11.70
2019-03-22T00:39:30.632Z,11.40
2019-03-22T00:42:02.079Z,11.40
2019-03-22T00:44:33.498Z,10.70
2019-03-22T00:47:04.900Z,11.07
2019-03-22T00:49:36.336Z,11.22
2019-03-22T00:52:07.736Z,11.60
2019-03-22T00:54:39.147Z,12.68
2019-03-22T00:57:10.499Z,12.07
2019-03-22T00:59:41.893Z,11.90
2019-03-22T01:02:13.305Z,11.23
2019-03-22T01:04:44.769Z,11.33
2019-03-22T01:07:16.134Z,9.93
2019-03-22T01:09:47.542Z,11.47
2019-03-22T01:12:18.907Z,10.80
2019-03-22T01:14:50.277Z,11.20
2019-03-22T01:17:21.685Z,11.27
2019-03-22T01:19:53.123Z,12.03
2019-03-22T01:22:24.468Z,10.83
2019-03-22T01:24:55.857Z,12.17
2019-03-22T01:27:27.211Z,11.27
2019-03-22T01:29:58.723Z,11.47
2019-03-22T01:32:30.133Z,11.80
2019-03-22T01:35:01.527Z,12.50
2019-03-22T01:37:32.887Z,11.87
2019-03-22T01:40:04.475Z,11.60
2019-03-22T01:42:35.974Z,11.23
2019-03-22T01:45:10.028Z,11.57
2019-03-22T01:47:41.448Z,11.57
2019-03-22T01:50:14.450Z,10.77
2019-03-22T01:52:45.944Z,11.47
2019-03-22T01:55:17.268Z,11.40
2019-03-22T01:57:53.468Z,10.93
2019-03-22T02:00:22.361Z,11.17
2019-03-22T02:02:53.766Z,11.77
2019-03-22T02:05:25.152Z,11.40
2019-03-22T02:07:56.502Z,11.40
2019-03-22T02:10:28.046Z,11.63
2019-03-22T02:12:59.398Z,11.77
2019-03-22T02:15:30.778Z,11.53
2019-03-22T02:18:02.153Z,10.77
2019-03-22T02:20:33.553Z,11.97
2019-03-22T02:23:04.915Z,10.17
2019-03-22T02:25:36.337Z,10.87
2019-03-22T02:28:07.681Z,10.90
2019-03-22T02:30:39.052Z,11.63
2019-03-22T02:33:10.503Z,11.47
2019-03-22T02:35:42.039Z,11.03
2019-03-22T02:38:13.423Z,11.80
2019-03-22T02:40:44.893Z,11.03
2019-03-22T02:43:16.283Z,11.57
2019-03-22T02:45:47.683Z,11.60
2019-03-22T02:48:19.031Z,11.33
2019-03-22T02:50:50.464Z,11.30
2019-03-22T02:53:21.913Z,10.97
2019-03-22T02:55:53.489Z,10.83
2019-03-22T02:58:25.046Z,10.83
2019-03-22T03:00:56.467Z,11.23
2019-03-22T03:03:27.872Z,10.57
2019-03-22T03:05:59.244Z,10.23
2019-03-22T03:08:30.608Z,11.77
2019-03-22T03:11:02.011Z,10.67
2019-03-22T03:13:33.398Z,10.33
2019-03-22T03:16:04.792Z,10.57
2019-03-22T03:18:36.139Z,10.77
2019-03-22T03:21:07.724Z,10.37
2019-03-22T03:23:39.098Z,10.70
2019-03-22T03:26:10.567Z,10.57
2019-03-22T03:28:41.929Z,10.50
2019-03-22T03:31:13.320Z,10.03
2019-03-22T03:33:44.686Z,11.20
2019-03-22T03:36:16.196Z,10.77
2019-03-22T03:38:47.520Z,10.17
2019-03-22T03:41:18.919Z,10.87
2019-03-22T03:43:50.307Z,10.87
2019-03-22T03:46:21.757Z,10.43
2019-03-22T03:48:53.102Z,11.17
2019-03-22T03:51:24.548Z,10.00
2019-03-22T03:53:55.907Z,10.70
2019-03-22T03:56:27.276Z,10.07
2019-03-22T03:58:58.635Z,11.00
2019-03-22T04:01:30.075Z,10.07
2019-03-22T04:04:01.392Z,10.43
2019-03-22T04:06:32.848Z,10.30
2019-03-22T04:09:05.616Z,10.03
2019-03-22T04:11:36.998Z,10.27
2019-03-22T04:14:08.345Z,9.90
2019-03-22T04:16:39.775Z,10.40
2019-03-22T04:19:11.161Z,10.93
2019-03-22T04:21:42.586Z,10.90
2019-03-22T04:24:13.930Z,10.30
2019-03-22T04:26:45.300Z,9.97
2019-03-22T04:29:16.723Z,10.33
2019-03-22T04:31:48.208Z,9.83
2019-03-22T04:34:19.667Z,10.57
2019-03-22T04:36:51.053Z,9.97
2019-03-22T04:39:22.514Z,11.07
2019-03-22T04:41:54.027Z,10.50
2019-03-22T04:44:25.377Z,10.27
2019-03-22T04:46:57.485Z,10.03
2019-03-22T04:49:30.337Z,10.87
2019-03-22T04:52:02.009Z,10.87
2019-03-22T04:54:37.869Z,10.27
2019-03-22T04:57:13.082Z,11.00
2019-03-22T04:59:48.238Z,10.80
2019-03-22T05:02:20.765Z,11.43
2019-03-22T05:04:52.917Z,10.20
2019-03-22T05:07:24.622Z,9.40
2019-03-22T05:09:56.862Z,10.63
2019-03-22T05:12:28.958Z,10.57
2019-03-22T05:15:02.168Z,10.77
2019-03-22T05:17:34.475Z,10.10
2019-03-22T05:20:06.798Z,10.03
2019-03-22T05:22:39.294Z,9.57
2019-03-22T05:25:12.517Z,10.50
2019-03-22T05:27:46.790Z,10.37
2019-03-22T05:31:06.876Z,10.37
2019-03-22T05:33:57.086Z,11.13
2019-03-22T05:36:28.562Z,10.80
2019-03-22T05:38:59.957Z,9.43
2019-03-22T05:41:31.305Z,10.03
2019-03-22T05:44:02.969Z,10.27
2019-03-22T05:46:34.418Z,10.17
2019-03-22T05:49:05.813Z,10.27
2019-03-22T05:51:37.283Z,9.77
2019-03-22T05:54:08.740Z,10.03
2019-03-22T05:56:40.103Z,10.63
2019-03-22T05:59:11.488Z,10.17
2019-03-22T06:01:45.233Z,10.23
2019-03-22T06:04:16.146Z,10.80
2019-03-22T06:06:47.611Z,10.43
2019-03-22T06:09:19.135Z,9.73
2019-03-22T06:11:50.592Z,11.07
2019-03-22T06:14:21.955Z,10.53
2019-03-22T06:16:53.367Z,10.67
2019-03-22T06:19:24.796Z,9.60
2019-03-22T06:21:56.174Z,9.83
2019-03-22T06:24:27.711Z,10.63
2019-03-22T06:26:59.263Z,10.53
2019-03-22T06:29:30.813Z,11.13
2019-03-22T06:32:02.180Z,10.67
2019-03-22T06:34:33.635Z,10.07
2019-03-22T06:37:05.080Z,10.70
2019-03-22T06:39:36.458Z,11.20
2019-03-22T06:42:08.077Z,10.73
2019-03-22T06:44:39.451Z,10.10
2019-03-22T06:47:11.256Z,11.60
2019-03-22T06:49:42.797Z,11.77
2019-03-22T06:52:14.435Z,11.23
2019-03-22T06:54:45.852Z,10.50
2019-03-22T06:57:17.255Z,11.13
2019-03-22T06:59:48.651Z,11.13
2019-03-22T07:02:20.035Z,11.63
2019-03-22T07:04:51.446Z,11.70
2019-03-22T07:07:22.830Z,11.00
2019-03-22T07:09:54.328Z,11.90
2019-03-22T07:12:25.681Z,11.20
2019-03-22T07:14:57.211Z,11.03
2019-03-22T07:17:28.722Z,11.17
2019-03-22T07:20:00.417Z,11.50
2019-03-22T07:22:32.049Z,11.13
2019-03-22T07:25:04.966Z,11.30
2019-03-22T07:27:36.315Z,10.65
2019-03-22T07:30:18.146Z,11.40
2019-03-22T07:32:42.351Z,10.65
2019-03-22T07:35:13.775Z,11.33
2019-03-22T07:37:45.308Z,11.20
2019-03-22T07:40:16.915Z,10.80
2019-03-22T07:42:48.649Z,11.53
2019-03-22T07:45:20.101Z,12.10
2019-03-22T07:47:51.620Z,11.33
2019-03-22T07:50:24.591Z,12.28
2019-03-22T07:52:56.021Z,11.68
2019-03-22T07:55:27.546Z,11.95
2019-03-22T07:58:17.786Z,11.83
2019-03-22T08:00:49.200Z,11.45
2019-03-22T08:03:20.596Z,11.05
2019-03-22T08:05:52.057Z,11.57
2019-03-22T08:08:23.429Z,10.90
2019-03-22T08:10:54.879Z,11.33
2019-03-22T08:13:26.408Z,11.30
2019-03-22T08:15:57.863Z,12.82
2019-03-22T08:18:29.454Z,12.47
2019-03-22T08:21:00.838Z,12.40
2019-03-22T08:23:32.206Z,11.40
2019-03-22T08:26:03.586Z,14.13
2019-03-22T08:28:34.939Z,13.98
2019-03-22T08:31:06.365Z,13.55
2019-03-22T08:33:37.734Z,13.72
2019-03-22T08:36:09.171Z,16.37
2019-03-22T08:38:40.611Z,15.72
2019-03-22T08:41:12.049Z,14.80
2019-03-22T08:43:43.558Z,13.93
2019-03-22T08:46:15.129Z,13.60
2019-03-22T08:48:46.514Z,14.43
2019-03-22T08:51:17.935Z,18.10
2019-03-22T08:53:55.157Z,18.07
2019-03-22T08:56:22.594Z,19.25
2019-03-22T08:58:54.013Z,18.90
2019-03-22T09:01:25.495Z,19.27
2019-03-22T09:03:56.977Z,19.55
2019-03-22T09:06:28.465Z,20.52
2019-03-22T09:08:59.862Z,19.10
2019-03-22T09:11:31.293Z,19.92
2019-03-22T09:14:03.270Z,21.50
2019-03-22T09:16:34.648Z,20.95
2019-03-22T09:19:06.046Z,21.23
2019-03-22T09:21:37.557Z,21.27
2019-03-22T09:24:09.060Z,20.68
2019-03-22T09:26:47.640Z,21.75
2019-03-22T09:29:13.570Z,21.80
2019-03-22T09:31:44.932Z,21.90
2019-03-22T09:34:16.480Z,24.92
2019-03-22T09:36:47.885Z,25.57
2019-03-22T09:39:19.740Z,25.32
2019-03-22T09:41:51.221Z,24.57
2019-03-22T09:44:22.615Z,27.02
2019-03-22T09:46:54.180Z,28.15
2019-03-22T09:49:25.663Z,26.17
2019-03-22T09:51:57.295Z,26.33
2019-03-22T09:54:28.762Z,27.62
2019-03-22T09:57:00.324Z,25.95
2019-03-22T09:59:31.797Z,26.68
2019-03-22T10:02:05.092Z,26.45
2019-03-22T10:04:36.477Z,29.15
2019-03-22T10:07:07.932Z,28.25
2019-03-22T10:09:39.335Z,27.32
2019-03-22T10:12:12.150Z,26.02
2019-03-22T10:14:43.610Z,26.52
2019-03-22T10:17:15.206Z,26.30
2019-03-22T10:19:46.736Z,29.32
2019-03-22T10:22:18.167Z,29.95
2019-03-22T10:24:49.618Z,28.47
2019-03-22T10:27:21.037Z,29.57
2019-03-22T10:29:52.440Z,26.45
2019-03-22T10:32:24.202Z,24.82
2019-03-22T10:34:56.218Z,28.50
2019-03-22T10:37:27.781Z,30.48
2019-03-22T10:39:59.227Z,28.73
2019-03-22T10:42:30.674Z,26.75
2019-03-22T10:45:02.139Z,25.27
2019-03-22T10:47:33.570Z,26.45
2019-03-22T10:50:05.230Z,27.73
2019-03-22T10:52:36.790Z,26.65
2019-03-22T10:55:28.438Z,25.12
2019-03-22T10:57:42.121Z,28.07
2019-03-22T11:00:17.367Z,27.13
2019-03-22T11:02:49.132Z,27.45
2019-03-22T11:05:20.658Z,28.52
2019-03-22T11:07:52.196Z,27.93
2019-03-22T11:10:23.602Z,29.70
2019-03-22T11:12:55.121Z,28.30
2019-03-22T11:15:26.480Z,29.97
2019-03-22T11:17:57.899Z,33.28
2019-03-22T11:20:29.372Z,28.50
2019-03-22T11:23:00.777Z,28.30
2019-03-22T11:25:32.178Z,27.77
2019-03-22T11:28:05.763Z,30.80
2019-03-22T11:30:37.177Z,28.50
2019-03-22T11:33:08.676Z,28.90
2019-03-22T11:35:40.147Z,26.87
2019-03-22T11:38:11.624Z,27.80
2019-03-22T11:40:43.085Z,33.05
2019-03-22T11:43:14.558Z,28.57
2019-03-22T11:45:45.899Z,29.07
2019-03-22T11:48:17.297Z,28.52
2019-03-22T11:50:48.883Z,29.95
2019-03-22T11:53:20.446Z,26.00
2019-03-22T11:55:53.249Z,25.52
2019-03-22T11:58:24.797Z,30.95
2019-03-22T12:00:56.253Z,27.82
2019-03-22T12:03:27.744Z,27.05
2019-03-22T12:05:59.384Z,26.60
2019-03-22T12:08:31.569Z,25.70
2019-03-22T12:11:02.967Z,23.75
2019-03-22T12:13:34.775Z,23.70
2019-03-22T12:16:06.330Z,25.52
2019-03-22T12:18:37.715Z,25.10
2019-03-22T12:21:09.123Z,25.57
2019-03-22T12:23:40.595Z,24.98
2019-03-22T12:26:12.121Z,25.60
2019-03-22T12:28:46.863Z,23.27
2019-03-22T12:31:19.496Z,23.50
2019-03-22T12:33:50.997Z,24.12
2019-03-22T12:36:22.394Z,24.98
2019-03-22T12:38:53.748Z,24.55
2019-03-22T12:41:25.336Z,22.17
2019-03-22T12:43:58.036Z,25.57
2019-03-22T12:46:29.445Z,24.02
2019-03-22T12:49:00.925Z,22.77
2019-03-22T12:51:32.326Z,24.02
2019-03-22T12:54:03.754Z,24.27
2019-03-22T12:56:35.353Z,22.02
2019-03-22T12:59:08.021Z,23.65
2019-03-22T13:01:39.412Z,21.07
2019-03-22T13:04:10.819Z,23.90
2019-03-22T13:06:42.241Z,22.45
2019-03-22T13:09:13.644Z,19.20
2019-03-22T13:11:45.067Z,18.98
2019-03-22T13:14:16.464Z,19.55
2019-03-22T13:16:47.858Z,20.65
2019-03-22T13:19:19.362Z,19.42
2019-03-22T13:21:50.759Z,21.02
2019-03-22T13:24:22.196Z,20.45
2019-03-22T13:26:53.602Z,20.05
2019-03-22T13:29:25.000Z,19.35
2019-03-22T13:31:56.391Z,18.32
2019-03-22T13:34:27.768Z,17.12
2019-03-22T13:36:59.158Z,16.65
2019-03-22T13:39:30.569Z,18.35
2019-03-22T13:42:01.986Z,17.70
2019-03-22T13:44:33.379Z,19.87
2019-03-22T13:47:04.847Z,20.27
2019-03-22T13:49:36.282Z,24.12
2019-03-22T13:52:07.678Z,17.75
2019-03-22T13:54:39.023Z,21.62
2019-03-22T13:57:10.530Z,21.40
2019-03-22T13:59:41.908Z,21.87
2019-03-22T14:02:13.424Z,21.70
2019-03-22T14:04:44.853Z,21.68
2019-03-22T14:07:16.249Z,18.92
2019-03-22T14:09:47.651Z,19.90
2019-03-22T14:12:19.075Z,24.32
2019-03-22T14:14:50.516Z,19.92
2019-03-22T14:17:22.346Z,17.67
2019-03-22T14:19:53.764Z,21.17
2019-03-22T14:22:25.155Z,20.27
2019-03-22T14:24:56.521Z,20.70
2019-03-22T14:27:27.915Z,17.23
2019-03-22T14:29:59.263Z,19.10
2019-03-22T14:32:30.831Z,20.00
2019-03-22T14:35:02.302Z,18.75
2019-03-22T14:37:33.956Z,18.55
2019-03-22T14:40:05.834Z,19.37
2019-03-22T14:42:37.448Z,20.05
2019-03-22T14:45:09.087Z,19.82
2019-03-22T14:47:40.543Z,20.15
2019-03-22T14:50:13.009Z,20.27
2019-03-22T14:52:44.414Z,19.50
2019-03-22T14:55:15.898Z,20.20
2019-03-22T14:57:49.915Z,21.93
2019-03-22T15:00:20.479Z,23.30
2019-03-22T15:02:51.916Z,23.62
2019-03-22T15:05:23.328Z,25.45
2019-03-22T15:07:54.765Z,26.15
2019-03-22T15:10:26.156Z,26.27
2019-03-22T15:12:57.553Z,26.55
2019-03-22T15:15:43.403Z,22.20
2019-03-22T15:18:39.812Z,23.73
2019-03-22T15:21:30.133Z,23.85
2019-03-22T15:24:19.346Z,26.97
2019-03-22T15:27:15.533Z,25.20
2019-03-22T15:30:17.988Z,27.00
2019-03-22T15:33:17.452Z,23.45
2019-03-22T15:36:07.495Z,23.67
2019-03-22T15:38:56.689Z,24.02
2019-03-22T15:41:28.005Z,24.47
2019-03-22T15:43:59.451Z,22.10
2019-03-22T15:46:30.914Z,23.47
2019-03-22T15:49:02.348Z,24.67
2019-03-22T15:51:33.719Z,24.92
2019-03-22T15:54:05.336Z,21.87
2019-03-22T15:56:36.835Z,22.75
2019-03-22T15:59:08.258Z,27.17
2019-03-22T16:01:39.668Z,25.23
2019-03-22T16:04:11.159Z,29.40
2019-03-22T16:06:42.658Z,26.15
2019-03-22T16:09:14.178Z,25.27
2019-03-22T16:11:45.547Z,24.43
2019-03-22T16:14:17.046Z,22.82
2019-03-22T16:16:48.448Z,24.77
2019-03-22T16:19:19.850Z,24.65
2019-03-22T16:21:51.233Z,25.57
2019-03-22T16:24:22.614Z,22.58
2019-03-22T16:26:54.184Z,25.10
2019-03-22T16:29:25.705Z,24.00
2019-03-22T16:31:57.120Z,24.57
2019-03-22T16:34:28.508Z,25.75
2019-03-22T16:37:00.018Z,24.80
2019-03-22T16:39:31.546Z,25.05
2019-03-22T16:42:02.980Z,26.37
2019-03-22T16:44:34.382Z,26.35
2019-03-22T16:47:05.761Z,27.82
2019-03-22T16:49:37.176Z,29.77
2019-03-22T16:52:08.607Z,27.25
2019-03-22T16:54:40.010Z,26.97
2019-03-22T16:57:11.513Z,25.70
2019-03-22T16:59:42.933Z,24.23
2019-03-22T17:02:14.468Z,26.62
2019-03-22T17:04:45.927Z,24.70
2019-03-22T17:07:17.367Z,27.15
2019-03-22T17:09:48.863Z,24.75
2019-03-22T17:12:20.343Z,24.75
2019-03-22T17:14:52.555Z,26.23
2019-03-22T17:17:24.259Z,27.42
2019-03-22T17:19:56.642Z,28.87
2019-03-22T17:22:28.272Z,26.52
2019-03-22T17:25:00.058Z,26.77
2019-03-22T17:27:31.470Z,27.20
2019-03-22T17:30:02.965Z,26.82
2019-03-22T17:32:34.575Z,26.93
2019-03-22T17:35:06.472Z,27.10
2019-03-22T17:37:38.200Z,27.87
2019-03-22T17:40:10.149Z,27.00
2019-03-22T17:42:41.497Z,26.65
2019-03-22T17:45:13.304Z,29.86
2019-03-22T17:47:44.812Z,34.33
2019-03-22T17:50:16.920Z,39.30
2019-03-22T17:52:48.471Z,36.17
2019-03-22T17:55:19.857Z,35.23
2019-03-22T17:57:51.329Z,35.65
2019-03-22T18:00:24.858Z,33.25
2019-03-22T18:02:56.359Z,33.05
2019-03-22T18:05:27.842Z,30.62
2019-03-22T18:07:59.258Z,32.95
2019-03-22T18:10:30.995Z,31.48
2019-03-22T18:13:02.437Z,32.78
2019-03-22T18:15:33.873Z,35.15
2019-03-22T18:18:05.311Z,31.20
2019-03-22T18:20:36.760Z,29.90
2019-03-22T18:23:08.142Z,30.00
2019-03-22T18:25:39.556Z,28.70
2019-03-22T18:28:11.049Z,30.95
2019-03-22T18:30:42.581Z,29.92
2019-03-22T18:33:15.173Z,29.37
2019-03-22T18:35:46.551Z,28.75
2019-03-22T18:38:18.069Z,30.75
2019-03-22T18:40:49.560Z,30.63
2019-03-22T18:43:22.647Z,29.23
2019-03-22T18:45:54.405Z,29.23
2019-03-22T18:48:25.906Z,29.23
2019-03-22T18:50:57.347Z,26.40
2019-03-22T18:53:28.846Z,28.25
2019-03-22T18:56:01.764Z,25.65
2019-03-22T18:58:33.175Z,24.95
2019-03-22T19:01:04.630Z,28.80
2019-03-22T19:03:36.117Z,28.35
2019-03-22T19:06:07.605Z,27.40
2019-03-22T19:08:39.153Z,26.37
2019-03-22T19:11:10.676Z,25.48
2019-03-22T19:13:43.238Z,26.62
2019-03-22T19:16:14.614Z,25.50
2019-03-22T19:18:47.608Z,28.30
2019-03-22T19:21:19.080Z,26.87
2019-03-22T19:23:50.543Z,25.45
2019-03-22T19:26:22.258Z,25.68
2019-03-22T19:28:53.750Z,26.30
2019-03-22T19:31:25.214Z,27.17
2019-03-22T19:33:56.657Z,26.82
2019-03-22T19:36:29.353Z,26.23
2019-03-22T19:39:00.800Z,25.77
2019-03-22T19:41:32.288Z,25.02
2019-03-22T19:44:03.728Z,24.57
2019-03-22T19:46:35.411Z,24.45
2019-03-22T19:49:06.891Z,24.67
2019-03-22T19:51:39.472Z,23.65
2019-03-22T19:54:10.903Z,23.57
2019-03-22T19:56:42.347Z,23.95
2019-03-22T19:59:13.733Z,23.25
2019-03-22T20:01:45.085Z,23.77
2019-03-22T20:04:16.557Z,23.85
2019-03-22T20:06:48.099Z,22.25
2019-03-22T20:09:19.538Z,21.48
2019-03-22T20:11:52.098Z,21.40
2019-03-22T20:14:23.590Z,21.50
2019-03-22T20:16:55.028Z,21.68
2019-03-22T20:19:26.567Z,21.27
2019-03-22T20:21:57.963Z,21.95
2019-03-22T20:24:29.431Z,21.35
2019-03-22T20:27:00.817Z,21.68
2019-03-22T20:29:32.201Z,22.30
2019-03-22T20:32:03.685Z,22.70
2019-03-22T20:34:35.305Z,22.75
2019-03-22T20:37:06.787Z,22.98
2019-03-22T20:39:38.257Z,22.82
2019-03-22T20:42:09.621Z,24.27
2019-03-22T20:44:41.072Z,23.00
2019-03-22T20:47:12.443Z,21.82
2019-03-22T20:49:44.010Z,23.40
2019-03-22T20:52:15.442Z,22.98
2019-03-22T20:54:46.948Z,22.20
2019-03-22T20:57:18.529Z,23.15
2019-03-22T20:59:51.148Z,22.32
2019-03-22T21:02:22.548Z,22.30
2019-03-22T21:04:54.067Z,23.00
2019-03-22T21:07:25.580Z,22.48
2019-03-22T21:09:57.132Z,23.92
2019-03-22T21:12:28.835Z,22.00
2019-03-22T21:15:00.456Z,22.00
2019-03-22T21:17:31.859Z,23.35
2019-03-22T21:20:03.254Z,22.17
2019-03-22T21:22:34.629Z,24.57
2019-03-22T21:25:06.828Z,23.90
2019-03-22T21:27:38.178Z,24.40
2019-03-22T21:30:10.265Z,25.35
2019-03-22T21:32:45.466Z,24.27
2019-03-22T21:35:22.549Z,23.45
2019-03-22T21:37:49.508Z,23.40
2019-03-22T21:40:20.906Z,23.20
2019-03-22T21:42:52.379Z,21.75
2019-03-22T21:45:23.880Z,24.03
2019-03-22T21:47:55.234Z,22.93
2019-03-22T21:50:26.762Z,21.97
2019-03-22T21:52:58.217Z,23.38
2019-03-22T21:55:29.641Z,22.82
2019-03-22T21:58:02.244Z,22.67
2019-03-22T22:00:33.651Z,22.42
2019-03-22T22:03:05.110Z,23.27
2019-03-22T22:05:36.587Z,23.55
2019-03-22T22:08:07.973Z,23.85
2019-03-22T22:10:39.450Z,23.77
2019-03-22T22:13:10.825Z,23.40
2019-03-22T22:15:42.243Z,23.75
2019-03-22T22:18:13.621Z,24.00
2019-03-22T22:20:45.011Z,23.62
2019-03-22T22:23:16.447Z,23.47
2019-03-22T22:25:47.861Z,24.43
2019-03-22T22:28:19.242Z,22.10
2019-03-22T22:30:50.712Z,21.35
2019-03-22T22:33:22.242Z,22.30
2019-03-22T22:35:58.625Z,21.48
2019-03-22T22:38:27.038Z,21.07
2019-03-22T22:40:59.697Z,21.97
2019-03-22T22:43:32.840Z,20.92
2019-03-22T22:46:04.523Z,21.30
2019-03-22T22:48:35.914Z,20.65
2019-03-22T22:51:07.604Z,21.05
2019-03-22T22:53:39.142Z,20.55
2019-03-22T22:56:10.535Z,20.52
2019-03-22T22:58:41.951Z,19.57
2019-03-22T23:01:13.530Z,20.08
2019-03-22T23:03:44.900Z,20.08
2019-03-22T23:06:16.630Z,20.27
2019-03-22T23:08:47.996Z,20.50
2019-03-22T23:11:19.679Z,20.70
2019-03-22T23:13:51.069Z,20.60
2019-03-22T23:16:22.585Z,18.45
2019-03-22T23:18:53.986Z,18.50
2019-03-22T23:21:25.401Z,19.30
2019-03-22T23:23:56.871Z,19.52
2019-03-22T23:26:28.418Z,19.75
2019-03-22T23:28:59.800Z,19.37
2019-03-22T23:31:31.355Z,18.30
2019-03-22T23:34:02.920Z,18.42
2019-03-22T23:36:35.510Z,20.02
2019-03-22T23:39:09.377Z,19.52
2019-03-22T23:41:40.733Z,18.70
2019-03-22T23:44:13.426Z,18.37
2019-03-22T23:46:44.797Z,18.10
2019-03-22T23:49:16.259Z,18.40
2019-03-22T23:51:47.666Z,19.73
2019-03-22T23:54:19.178Z,19.12
2019-03-22T23:56:50.535Z,19.52
2019-03-22T23:59:22.041Z,20.20
